Terminal Aerodrome Forecast
Issued by NWS Bismarck, ND

Home | Current Version | Previous Version | Text Only | Print | Product List | Glossary On
Versions: 1 2 3 4 5 6 7 8 9 10 11 12 13 14 15 16 17 18 19 20 21 22
000
FTUS43 KBIS 010100 AAB
TAFBIS
TAF AMD
KBIS 010145Z 0102/0124 04014KT 2SM -SN OVC020
     FM010800 01011KT P6SM BKN027
     FM011500 36007KT P6SM BKN100
     FM012000 29004KT P6SM SCT250
     FM012300 19004KT P6SM FEW250=

USA.gov is the U.S. government's official web portal to all federal, state and local government web resources and services.